C83

Byron Airport

Byron, California, USA
METAR KC83 181135Z AUTO 00000KT 5SM HZ CLR 10/08 A3008 RMK AO2
Observed Flight Rules
Oct-18 @ 11:35 UTC (17 minutes ago) Marginal Visual Flight Rules
Visibility Clouds Conditions
5 miles
  • Clear skies
  • Haze
Temperatures Readings
Current 10°C / 50°F
Dewpoint 8°C / 46°F
Humidity 88%
Altimeter 30.08" Hg
Pressure 1019 hPa
Elevation 24
METAR KC83 181135Z AUTO 00000KT 5SM HZ CLR 10/08 A3008 RMK AO2
Observed Flight Rules
Oct-18 @ 11:35 UTC
(17 minutes ago)
MVFR
Clouds
  • Clear skies
Conditions
  • Haze
Temperature Dewpoint
10°C / 50°F 8°C / 46°F
Humidity Altimeter Pressure
88% 30.08" Hg 1019 hPa